createdAt,value
2022-08-28T00:00:29.231Z,2.13
2022-08-28T00:05:32.364Z,2.20
2022-08-28T00:10:34.278Z,2.22
2022-08-28T00:15:37.980Z,2.67
2022-08-28T00:20:40.436Z,2.95
2022-08-28T00:25:42.224Z,2.22
2022-08-28T00:30:49.427Z,2.78
2022-08-28T00:35:54.376Z,1.92
2022-08-28T00:40:59.881Z,1.90
2022-08-28T00:46:06.165Z,1.85
2022-08-28T00:51:08.391Z,2.13
2022-08-28T00:56:13.329Z,1.83
2022-08-28T01:01:15.341Z,2.22
2022-08-28T01:06:18.383Z,1.60
2022-08-28T01:11:20.572Z,2.00
2022-08-28T01:16:22.769Z,2.00
2022-08-28T01:21:39.742Z,1.70
2022-08-28T01:26:42.272Z,2.00
2022-08-28T01:31:44.012Z,2.05
2022-08-28T01:36:45.849Z,1.98
2022-08-28T01:41:49.596Z,1.83
2022-08-28T01:46:53.588Z,1.92
2022-08-28T01:51:55.568Z,1.83
2022-08-28T01:56:58.575Z,2.03
2022-08-28T02:02:00.441Z,1.80
2022-08-28T02:07:02.410Z,1.95
2022-08-28T02:12:04.706Z,2.17
2022-08-28T02:17:06.470Z,1.75
2022-08-28T02:22:07.974Z,1.95
2022-08-28T02:27:09.997Z,2.10
2022-08-28T02:32:12.181Z,1.92
2022-08-28T02:37:14.130Z,1.67
2022-08-28T02:42:15.923Z,2.08
2022-08-28T02:47:20.256Z,2.20
2022-08-28T02:52:22.122Z,2.55
2022-08-28T02:57:23.714Z,2.30
2022-08-28T03:02:26.204Z,1.90
2022-08-28T03:07:30.198Z,2.42
2022-08-28T03:12:32.037Z,2.70
2022-08-28T03:17:33.868Z,2.47
2022-08-28T03:22:38.141Z,2.90
2022-08-28T03:27:40.213Z,2.28
2022-08-28T03:32:41.908Z,2.67
2022-08-28T03:37:43.772Z,2.53
2022-08-28T03:42:53.226Z,2.83
2022-08-28T03:52:57.038Z,2.72
2022-08-28T03:57:58.782Z,2.95
2022-08-28T04:03:00.528Z,3.17
2022-08-28T04:08:03.328Z,2.47
2022-08-28T04:13:05.167Z,2.78
2022-08-28T04:18:07.370Z,3.08
2022-08-28T04:23:09.263Z,3.13
2022-08-28T04:28:10.926Z,3.10
2022-08-28T04:33:12.644Z,3.47
2022-08-28T04:38:14.223Z,3.35
2022-08-28T04:43:15.951Z,3.20
2022-08-28T04:48:18.385Z,2.95
2022-08-28T04:53:20.714Z,3.75
2022-08-28T04:58:23.968Z,4.35
2022-08-28T05:03:28.521Z,4.00
2022-08-28T05:08:30.288Z,3.40
2022-08-28T05:13:32.013Z,3.75
2022-08-28T05:18:34.066Z,3.17
2022-08-28T05:23:35.639Z,4.03
2022-08-28T05:28:37.193Z,4.45
2022-08-28T05:33:39.131Z,4.43
2022-08-28T05:38:51.245Z,4.35
2022-08-28T05:43:59.693Z,3.90
2022-08-28T05:49:01.631Z,3.85
2022-08-28T05:54:03.882Z,3.78
2022-08-28T05:59:06.699Z,4.50
2022-08-28T06:04:15.168Z,4.78
2022-08-28T06:09:29.691Z,4.10
2022-08-28T06:14:32.600Z,4.78
2022-08-28T06:19:41.123Z,4.25
2022-08-28T06:24:43.129Z,3.70
2022-08-28T06:29:44.587Z,4.25
2022-08-28T06:34:45.969Z,4.53
2022-08-28T06:39:47.380Z,3.83
2022-08-28T06:44:48.912Z,4.10
2022-08-28T06:49:50.428Z,3.47
2022-08-28T06:54:55.606Z,4.25
2022-08-28T06:59:58.444Z,3.58
2022-08-28T07:04:59.975Z,3.65
2022-08-28T07:10:03.532Z,3.28
2022-08-28T07:15:05.645Z,4.20
2022-08-28T07:20:07.673Z,3.65
2022-08-28T07:25:10.516Z,3.50
2022-08-28T07:30:12.186Z,3.65
2022-08-28T07:35:13.676Z,3.22
2022-08-28T07:40:15.600Z,3.38
2022-08-28T07:45:17.202Z,3.55
2022-08-28T07:50:18.770Z,3.47
2022-08-28T07:55:20.163Z,3.42
2022-08-28T08:00:22.446Z,3.65
2022-08-28T08:05:23.913Z,3.50
2022-08-28T08:10:25.439Z,3.13
2022-08-28T08:15:34.365Z,3.90
2022-08-28T08:20:35.887Z,3.25
2022-08-28T08:25:37.313Z,2.92
2022-08-28T08:30:38.789Z,2.83
2022-08-28T08:35:40.215Z,2.95
2022-08-28T08:40:41.729Z,3.25
2022-08-28T08:45:46.574Z,2.95
2022-08-28T08:50:48.565Z,2.83
2022-08-28T08:55:55.084Z,3.30
2022-08-28T09:01:03.930Z,2.88
2022-08-28T09:06:20.464Z,3.13
2022-08-28T09:11:29.723Z,3.50
2022-08-28T09:16:51.604Z,2.78
2022-08-28T09:21:53.603Z,2.78
2022-08-28T09:27:05.793Z,2.63
2022-08-28T09:32:30.444Z,2.60
2022-08-28T09:37:33.467Z,2.92
2022-08-28T09:42:34.948Z,3.03
2022-08-28T09:47:47.343Z,2.78
2022-08-28T09:52:50.108Z,3.30
2022-08-28T09:57:52.989Z,2.90
2022-08-28T10:03:14.515Z,2.72
2022-08-28T10:08:45.277Z,2.88
2022-08-28T10:14:01.248Z,3.10
2022-08-28T10:25:37.347Z,2.55
2022-08-28T10:31:33.624Z,3.13
2022-08-28T10:36:45.806Z,2.95
2022-08-28T10:47:58.190Z,2.80
2022-08-28T10:53:10.369Z,2.92
2022-08-28T10:58:23.996Z,2.55
2022-08-28T11:03:51.074Z,2.90
2022-08-28T11:08:58.528Z,2.53
2022-08-28T11:14:12.214Z,2.90
2022-08-28T11:19:43.879Z,2.53
2022-08-28T11:25:13.483Z,2.60
2022-08-28T11:30:38.590Z,2.60
2022-08-28T11:35:48.526Z,2.72
2022-08-28T11:40:55.122Z,2.60
2022-08-28T11:45:59.223Z,2.38
2022-08-28T11:51:17.677Z,2.22
2022-08-28T11:56:34.190Z,2.60
2022-08-28T12:01:36.180Z,2.78
2022-08-28T12:07:12.574Z,2.50
2022-08-28T12:12:22.825Z,2.20
2022-08-28T12:17:30.538Z,2.85
2022-08-28T12:23:04.326Z,2.17
2022-08-28T12:28:18.630Z,2.15
2022-08-28T12:33:39.395Z,2.38
2022-08-28T12:38:41.083Z,2.00
2022-08-28T12:43:47.056Z,2.10
2022-08-28T12:48:56.541Z,2.10
2022-08-28T12:54:03.909Z,2.50
2022-08-28T12:59:27.190Z,1.90
2022-08-28T13:04:36.493Z,2.30
2022-08-28T13:09:44.789Z,2.30
2022-08-28T13:14:46.452Z,1.92
2022-08-28T13:20:01.831Z,1.80
2022-08-28T13:25:04.291Z,2.72
2022-08-28T13:30:28.858Z,2.63
2022-08-28T13:35:39.736Z,1.80
2022-08-28T13:40:58.450Z,2.20
2022-08-28T13:46:00.702Z,2.15
2022-08-28T13:51:10.371Z,2.17
2022-08-28T13:56:12.406Z,1.80
2022-08-28T14:01:16.866Z,1.90
2022-08-28T14:06:32.069Z,2.13
2022-08-28T14:11:33.590Z,1.95
2022-08-28T14:16:39.708Z,1.80
2022-08-28T14:21:42.692Z,2.35
2022-08-28T14:26:44.348Z,2.08
2022-08-28T14:31:46.741Z,1.42
2022-08-28T14:36:52.924Z,1.98
2022-08-28T14:41:54.907Z,1.83
2022-08-28T14:47:05.698Z,1.50
2022-08-28T14:52:07.259Z,1.83
2022-08-28T14:57:09.843Z,2.00
2022-08-28T15:02:11.301Z,1.98
2022-08-28T15:07:12.720Z,1.88
2022-08-28T15:12:14.347Z,1.60
2022-08-28T15:17:18.263Z,2.00
2022-08-28T15:22:27.223Z,2.05
2022-08-28T15:27:29.277Z,1.90
2022-08-28T15:32:30.729Z,1.92
2022-08-28T15:37:32.222Z,2.42
2022-08-28T15:42:33.836Z,2.17
2022-08-28T15:47:36.417Z,2.05
2022-08-28T15:52:37.875Z,1.80
2022-08-28T15:57:39.278Z,2.03
2022-08-28T16:02:40.725Z,1.85
2022-08-28T16:07:42.383Z,2.15
2022-08-28T16:12:43.769Z,1.95
2022-08-28T16:17:49.330Z,2.30
2022-08-28T16:22:51.272Z,2.00
2022-08-28T16:27:52.662Z,2.00
2022-08-28T16:32:55.153Z,1.88
2022-08-28T16:37:56.998Z,1.83
2022-08-28T16:42:58.457Z,1.10
2022-08-28T16:48:00.684Z,1.70
2022-08-28T16:53:06.727Z,1.90
2022-08-28T16:58:08.844Z,1.85
2022-08-28T17:03:10.332Z,1.90
2022-08-28T17:08:11.926Z,1.50
2022-08-28T17:13:13.514Z,1.50
2022-08-28T17:18:15.151Z,2.28
2022-08-28T17:23:17.014Z,1.85
2022-08-28T17:28:18.437Z,2.00
2022-08-28T17:33:19.989Z,1.70
2022-08-28T17:38:22.022Z,2.03
2022-08-28T17:43:23.421Z,1.70
2022-08-28T17:48:24.909Z,1.73
2022-08-28T17:53:27.897Z,1.85
2022-08-28T17:58:29.449Z,1.90
2022-08-28T18:03:31.582Z,1.90
2022-08-28T18:08:39.902Z,1.63
2022-08-28T18:13:41.951Z,1.65
2022-08-28T18:18:43.550Z,1.85
2022-08-28T18:23:45.401Z,1.50
2022-08-28T18:28:47.198Z,1.95
2022-08-28T18:33:49.301Z,2.00
2022-08-28T18:38:51.816Z,1.60
2022-08-28T18:43:54.564Z,1.65
2022-08-28T18:48:56.524Z,1.77
2022-08-28T18:53:59.817Z,1.83
2022-08-28T18:59:02.219Z,1.60
2022-08-28T19:04:04.006Z,1.83
2022-08-28T19:09:05.442Z,1.70
2022-08-28T19:14:06.886Z,1.80
2022-08-28T19:19:08.902Z,1.48
2022-08-28T19:24:10.829Z,2.10
2022-08-28T19:29:12.496Z,1.77
2022-08-28T19:34:14.001Z,1.67
2022-08-28T19:39:15.438Z,2.13
2022-08-28T19:44:17.128Z,1.73
2022-08-28T19:49:18.602Z,1.75
2022-08-28T19:54:20.214Z,2.05
2022-08-28T19:59:25.220Z,2.03
2022-08-28T20:04:29.877Z,2.08
2022-08-28T20:09:31.305Z,2.33
2022-08-28T20:14:32.766Z,2.60
2022-08-28T20:19:34.347Z,2.33
2022-08-28T20:24:37.447Z,2.20
2022-08-28T20:29:38.859Z,1.80
2022-08-28T20:34:44.387Z,1.98
2022-08-28T20:39:46.075Z,2.20
2022-08-28T20:44:47.662Z,2.20
2022-08-28T20:49:49.114Z,2.10
2022-08-28T20:54:50.599Z,2.58
2022-08-28T20:59:52.295Z,2.33
2022-08-28T21:04:54.755Z,1.67
2022-08-28T21:10:05.002Z,2.25
2022-08-28T21:15:11.187Z,2.20
2022-08-28T21:20:14.729Z,2.20
2022-08-28T21:25:16.850Z,2.28
2022-08-28T21:30:20.936Z,2.10
2022-08-28T21:35:22.600Z,1.65
2022-08-28T21:40:24.062Z,1.92
2022-08-28T21:45:25.573Z,1.85
2022-08-28T21:50:27.121Z,2.08
2022-08-28T21:55:29.400Z,2.05
2022-08-28T22:00:30.886Z,2.83
2022-08-28T22:05:32.575Z,2.30
2022-08-28T22:10:35.507Z,2.33
2022-08-28T22:15:42.839Z,1.65
2022-08-28T22:20:45.543Z,1.67
2022-08-28T22:25:46.977Z,1.80
2022-08-28T22:30:48.481Z,2.10
2022-08-28T22:35:51.728Z,2.05
2022-08-28T22:40:53.183Z,1.88
2022-08-28T22:45:54.913Z,2.47
2022-08-28T22:51:10.456Z,1.70
2022-08-28T22:56:12.977Z,1.90
2022-08-28T23:01:19.763Z,1.75
2022-08-28T23:06:21.174Z,1.88
2022-08-28T23:11:22.923Z,2.08
2022-08-28T23:16:24.492Z,2.28
2022-08-28T23:21:26.623Z,1.80
2022-08-28T23:26:28.077Z,1.80
2022-08-28T23:31:29.489Z,2.20
2022-08-28T23:36:31.150Z,1.85
2022-08-28T23:41:33.266Z,2.05
2022-08-28T23:46:35.080Z,1.80
2022-08-28T23:51:37.704Z,1.40
2022-08-28T23:56:39.258Z,1.90
